Time;durP1;ratioP1;P1;durP2;ratioP2;P2;SDS_P1;SDS_P2;PMS_P1;PMS_P2;Temp;Humidity;BMP_temperature;BMP_pressure;BME280_temperature;BME280_humidity;BME280_pressure;Samples;Min_cycle;Max_cycle;Signal;HPM_P1;HPM_P2
2022/07/07 00:00:15;;;;;;;5.53;2.95;;;;;;;14.12;100.00;101608.06;6220029;28;20046;-77
2022/07/07 00:03:16;;;;;;;7.22;3.13;;;;;;;14.04;100.00;101605.00;6224056;28;20050;-76
2022/07/07 00:06:18;;;;;;;4.78;2.95;;;;;;;14.02;100.00;101591.00;6224889;28;20053;-76
2022/07/07 00:09:21;;;;;;;6.55;3.15;;;;;;;14.06;100.00;101599.63;6224348;28;20049;-76
2022/07/07 00:12:22;;;;;;;3.88;2.88;;;;;;;14.02;100.00;101590.16;6224621;28;20052;-76
2022/07/07 00:15:23;;;;;;;5.38;2.90;;;;;;;14.05;100.00;101584.72;6224726;28;20050;-76
2022/07/07 00:18:25;;;;;;;4.90;2.72;;;;;;;14.12;100.00;101588.72;6225092;28;20057;-76
2022/07/07 00:21:26;;;;;;;5.72;2.67;;;;;;;14.12;100.00;101578.13;6224570;28;20053;-76
2022/07/07 00:24:29;;;;;;;3.83;2.53;;;;;;;14.20;100.00;101575.94;6224460;28;20057;-76
2022/07/07 00:27:30;;;;;;;6.68;4.18;;;;;;;14.20;100.00;101571.50;6224310;28;20046;-76
2022/07/07 00:30:31;;;;;;;6.28;2.78;;;;;;;14.17;100.00;101565.53;6210655;28;20517;-76
2022/07/07 00:33:33;;;;;;;5.13;3.55;;;;;;;14.21;100.00;101556.47;6200823;28;20054;-75
2022/07/07 00:36:35;;;;;;;4.53;2.55;;;;;;;14.26;100.00;101554.47;6199116;28;20066;-76
2022/07/07 00:39:37;;;;;;;3.38;2.90;;;;;;;14.24;100.00;101545.75;6199507;28;20057;-75
2022/07/07 00:42:39;;;;;;;5.28;2.90;;;;;;;14.24;100.00;101544.91;6199466;28;20513;-76
2022/07/07 00:45:41;;;;;;;4.82;3.00;;;;;;;14.18;100.00;101531.09;6199485;28;20057;-75
2022/07/07 00:48:43;;;;;;;4.70;2.85;;;;;;;14.19;100.00;101529.28;6198562;28;20054;-75
2022/07/07 00:51:44;;;;;;;5.80;2.83;;;;;;;14.23;100.00;101525.53;6199404;28;20050;-75
2022/07/07 00:54:52;;;;;;;4.70;2.70;;;;;;;14.26;100.00;101513.91;6198944;28;20058;-75
2022/07/07 00:57:54;;;;;;;4.10;2.50;;;;;;;14.30;100.00;101507.53;6198956;28;20046;-75
2022/07/07 01:00:55;;;;;;;4.80;3.00;;;;;;;14.32;100.00;101510.94;6199859;28;20134;-75
2022/07/07 01:03:58;;;;;;;4.35;2.47;;;;;;;14.31;100.00;101511.91;6198837;28;20063;-75
2022/07/07 01:07:01;;;;;;;5.78;2.33;;;;;;;14.28;100.00;101504.97;6198885;28;20046;-76
2022/07/07 01:10:06;;;;;;;4.93;2.63;;;;;;;14.27;100.00;101503.28;6198769;28;20050;-76
2022/07/07 01:13:08;;;;;;;3.67;2.97;;;;;;;14.24;100.00;101494.66;6198420;28;20050;-75
2022/07/07 01:16:09;;;;;;;4.75;2.33;;;;;;;14.23;100.00;101495.63;6198555;28;20054;-76
2022/07/07 01:19:11;;;;;;;3.97;2.75;;;;;;;14.20;100.00;101489.53;6198813;28;20061;-75
2022/07/07 01:22:14;;;;;;;4.75;2.67;;;;;;;14.21;100.00;101483.31;6198592;28;20054;-76
2022/07/07 01:25:18;;;;;;;5.07;2.25;;;;;;;14.25;100.00;101481.34;6198709;28;20054;-75
2022/07/07 01:28:19;;;;;;;4.88;3.15;;;;;;;14.28;100.00;101475.91;6198641;28;20519;-76
2022/07/07 01:31:20;;;;;;;5.28;3.05;;;;;;;14.30;100.00;101474.00;6206552;28;20053;-75
2022/07/07 01:34:21;;;;;;;5.53;2.95;;;;;;;14.33;100.00;101470.34;6222494;28;20057;-75
2022/07/07 01:37:24;;;;;;;6.20;4.35;;;;;;;14.40;100.00;101469.06;6222698;28;20057;-75
2022/07/07 01:40:27;;;;;;;5.47;3.30;;;;;;;14.36;100.00;101456.97;6222333;28;20502;-75
2022/07/07 01:43:28;;;;;;;4.53;2.97;;;;;;;14.30;100.00;101457.28;6222594;28;20077;-75
2022/07/07 01:46:31;;;;;;;4.32;3.22;;;;;;;14.26;100.00;101451.34;6222225;28;20052;-74
2022/07/07 01:49:34;;;;;;;5.05;2.97;;;;;;;14.20;100.00;101444.59;6222255;28;20054;-74
2022/07/07 01:52:36;;;;;;;6.45;3.03;;;;;;;14.22;100.00;101433.97;6222040;28;20482;-75
2022/07/07 01:55:39;;;;;;;4.68;3.28;;;;;;;14.19;100.00;101437.63;6221922;28;20046;-74
2022/07/07 01:58:40;;;;;;;6.20;3.45;;;;;;;14.19;100.00;101439.41;6215425;28;20073;-74
2022/07/07 02:01:41;;;;;;;6.80;3.25;;;;;;;14.21;100.00;101432.22;6225088;28;20417;-75
2022/07/07 02:04:43;;;;;;;7.10;4.13;;;;;;;14.20;100.00;101428.75;6226805;28;20058;-74
2022/07/07 02:07:45;;;;;;;4.63;3.05;;;;;;;14.21;100.00;101427.78;6226676;28;20462;-74
2022/07/07 02:14:07;;;;;;;8.68;3.90;;;;;;;14.26;100.00;101414.34;6226614;28;20057;-75
2022/07/07 02:17:08;;;;;;;4.95;3.60;;;;;;;14.29;100.00;101410.66;6226886;28;20053;-74
2022/07/07 02:20:11;;;;;;;5.75;3.78;;;;;;;14.28;100.00;101420.38;6226500;28;20050;-74
2022/07/07 02:23:12;;;;;;;7.78;3.25;;;;;;;14.29;100.00;101410.66;6226481;28;20053;-74
2022/07/07 02:26:15;;;;;;;6.78;4.05;;;;;;;14.29;100.00;101406.22;6224157;28;20050;-75
2022/07/07 02:29:16;;;;;;;10.00;3.53;;;;;;;14.30;100.00;101402.63;6226163;28;20114;-75
2022/07/07 02:32:17;;;;;;;5.68;3.10;;;;;;;14.30;100.00;101396.47;6226444;28;20050;-75
2022/07/07 02:35:19;;;;;;;5.55;3.50;;;;;;;14.33;100.00;101383.94;6226106;28;20046;-75
2022/07/07 02:38:22;;;;;;;7.70;4.00;;;;;;;14.38;100.00;101384.50;6210232;28;20506;-75
2022/07/07 02:41:25;;;;;;;10.00;3.75;;;;;;;14.39;100.00;101374.78;6202114;28;20057;-74
2022/07/07 02:44:26;;;;;;;5.60;3.55;;;;;;;14.42;100.00;101374.59;6215661;28;20690;-75
2022/07/07 02:47:27;;;;;;;6.15;3.40;;;;;;;14.43;100.00;101371.03;6226607;28;20050;-75
2022/07/07 02:50:29;;;;;;;8.23;4.25;;;;;;;14.43;100.00;101376.31;6225868;28;20054;-75
2022/07/07 02:53:30;;;;;;;7.03;4.10;;;;;;;14.41;100.00;101363.19;6226622;28;20050;-75
2022/07/07 02:56:33;;;;;;;7.38;3.60;;;;;;;14.43;100.00;101371.88;6226190;28;20603;-75
2022/07/07 02:59:34;;;;;;;6.70;3.90;;;;;;;14.43;100.00;101360.44;6225894;28;20057;-76
2022/07/07 03:02:35;;;;;;;8.85;3.92;;;;;;;14.46;100.00;101361.13;6225535;28;20505;-75
2022/07/07 03:05:37;;;;;;;6.80;3.88;;;;;;;14.48;100.00;101347.81;6224641;28;20046;-75
2022/07/07 03:08:38;;;;;;;8.48;3.50;;;;;;;14.49;100.00;101346.03;6225975;28;20050;-75
2022/07/07 03:11:41;;;;;;;8.05;3.97;;;;;;;14.48;100.00;101347.81;6224688;28;20046;-74
2022/07/07 03:14:42;;;;;;;6.30;3.55;;;;;;;14.47;100.00;101349.59;6225419;28;20061;-74
2022/07/07 03:17:45;;;;;;;6.47;3.90;;;;;;;14.50;100.00;101345.94;6225349;28;20524;-74
2022/07/07 03:20:47;;;;;;;6.38;2.83;;;;;;;14.50;100.00;101345.09;6225329;28;20513;-75
2022/07/07 03:23:48;;;;;;;8.40;4.55;;;;;;;14.52;100.00;101340.56;6225391;28;20046;-75
2022/07/07 03:26:51;;;;;;;7.68;4.30;;;;;;;14.52;100.00;101332.63;6225097;28;20046;-74
2022/07/07 03:29:52;;;;;;;7.80;4.70;;;;;;;14.58;100.00;101332.25;6206466;28;20057;-74
2022/07/07 03:32:53;;;;;;;5.70;3.58;;;;;;;14.58;100.00;101330.47;6200477;28;20407;-75
2022/07/07 03:35:54;;;;;;;8.40;4.15;;;;;;;14.59;100.00;101329.53;6200466;28;20047;-74
2022/07/07 03:38:56;;;;;;;7.80;4.30;;;;;;;14.59;100.00;101320.75;6200575;28;20077;-74
2022/07/07 03:41:58;;;;;;;5.38;3.45;;;;;;;14.60;100.00;101333.88;6200439;28;20053;-75
2022/07/07 03:45:00;;;;;;;6.13;3.90;;;;;;;14.60;100.00;101335.66;6200272;28;20494;-76
2022/07/07 03:48:01;;;;;;;6.95;3.90;;;;;;;14.58;100.00;101330.47;6200389;28;20073;-74
2022/07/07 03:51:03;;;;;;;10.27;4.30;;;;;;;14.57;100.00;101327.91;6200074;28;20054;-75
2022/07/07 03:54:04;;;;;;;7.07;3.83;;;;;;;14.56;100.00;101313.84;6208002;28;20423;-75
2022/07/07 03:57:07;;;;;;;8.18;4.60;;;;;;;14.59;100.00;101324.25;6224392;28;20048;-75
2022/07/07 04:00:10;;;;;;;8.40;4.43;;;;;;;14.59;100.00;101312.81;6218489;28;20138;-74
2022/07/07 04:03:11;;;;;;;7.82;4.50;;;;;;;14.62;100.00;101302.03;6208855;28;20053;-75
2022/07/07 04:06:12;;;;;;;9.00;4.30;;;;;;;14.63;100.00;101301.09;6224208;28;20053;-75
2022/07/07 04:09:14;;;;;;;8.18;4.50;;;;;;;14.64;100.00;101300.16;6224269;28;20050;-75
2022/07/07 04:12:16;;;;;;;7.43;4.07;;;;;;;14.64;100.00;101293.06;6223783;28;20046;-75
2022/07/07 04:15:18;;;;;;;8.68;4.80;;;;;;;14.60;100.00;101296.84;6224049;28;20458;-75
2022/07/07 04:18:19;;;;;;;8.68;4.70;;;;;;;14.61;100.00;101287.94;6223971;28;20061;-76
2022/07/07 04:21:20;;;;;;;9.32;4.55;;;;;;;14.60;100.00;101288.06;6223770;28;20058;-74
2022/07/07 04:24:22;;;;;;;8.38;4.32;;;;;;;14.61;100.00;101282.66;6223920;28;20179;-75
2022/07/07 04:27:24;;;;;;;9.43;5.15;;;;;;;14.65;100.00;101289.47;6223421;28;20060;-75
2022/07/07 04:30:27;;;;;;;8.70;4.32;;;;;;;14.67;100.00;101289.34;6223810;28;20060;-75
2022/07/07 04:33:29;;;;;;;12.73;4.97;;;;;;;14.67;100.00;101281.41;6228893;28;20038;-74
2022/07/07 04:36:30;;;;;;;11.00;5.60;;;;;;;14.67;100.00;101278.78;6234480;28;20050;-75
2022/07/07 04:39:32;;;;;;;14.82;5.35;;;;;;;14.67;100.00;101271.72;6235663;28;20041;-75
2022/07/07 04:42:35;;;;;;;8.80;5.45;;;;;;;14.70;100.00;101273.31;6233473;28;20056;-74
2022/07/07 04:45:36;;;;;;;8.93;4.93;;;;;;;14.72;100.00;101263.50;6230256;28;20476;-75
2022/07/07 04:48:37;;;;;;;9.48;5.30;;;;;;;14.76;100.00;101264.13;6235299;28;20509;-74
2022/07/07 04:51:39;;;;;;;10.88;5.20;;;;;;;14.77;100.00;101264.06;6230975;28;20048;-74
2022/07/07 04:54:40;;;;;;;11.52;5.85;;;;;;;14.82;100.00;101258.47;6234621;28;20045;-74
2022/07/07 04:57:43;;;;;;;10.82;5.47;;;;;;;14.83;100.00;101262.81;6233680;28;20132;-74
2022/07/07 05:00:44;;;;;;;9.20;5.13;;;;;;;14.86;100.00;101262.63;6234257;28;20064;-74
2022/07/07 05:03:45;;;;;;;9.85;5.10;;;;;;;14.87;100.00;101262.53;6233901;28;20069;-74
2022/07/07 05:06:47;;;;;;;8.02;4.88;;;;;;;14.88;100.00;101264.22;6234290;28;20052;-74
2022/07/07 05:09:48;;;;;;;10.15;4.82;;;;;;;14.87;100.00;101256.38;6234065;28;20493;-74
2022/07/07 05:12:51;;;;;;;11.25;5.57;;;;;;;14.86;100.00;101258.19;6231416;28;20476;-74
2022/07/07 05:15:52;;;;;;;9.98;5.05;;;;;;;14.90;100.00;101259.69;6232448;28;20057;-74
2022/07/07 05:18:53;;;;;;;10.02;5.00;;;;;;;14.91;100.00;101264.03;6230017;28;20053;-74
2022/07/07 05:21:55;;;;;;;8.63;5.28;;;;;;;14.94;100.00;101255.03;6233234;28;20041;-74
2022/07/07 05:24:57;;;;;;;9.77;4.38;;;;;;;14.98;100.00;101262.69;6233208;28;20042;-75
2022/07/07 05:27:59;;;;;;;8.90;4.10;;;;;;;15.01;100.00;101263.44;6234591;28;20412;-75
2022/07/07 05:31:02;;;;;;;7.25;3.83;;;;;;;15.03;100.00;101274.78;6223874;28;20049;-75
2022/07/07 05:34:04;;;;;;;6.20;4.10;;;;;;;15.05;100.00;101270.25;6223573;28;20093;-74
2022/07/07 05:37:05;;;;;;;7.03;4.18;;;;;;;15.08;100.00;101268.25;6222308;28;20461;-75
2022/07/07 05:40:08;;;;;;;6.72;3.88;;;;;;;15.15;100.00;101272.19;6223008;28;20052;-75
2022/07/07 05:43:11;;;;;;;8.80;4.22;;;;;;;15.21;100.00;101270.94;6217738;28;20050;-75
2022/07/07 05:46:12;;;;;;;8.43;4.47;;;;;;;15.21;100.00;101265.66;6206439;28;20414;-75
2022/07/07 05:49:13;;;;;;;7.78;4.07;;;;;;;15.22;100.00;101276.16;6220864;28;20064;-74
2022/07/07 05:52:15;;;;;;;6.05;3.78;;;;;;;15.23;100.00;101277.00;6212294;28;20045;-75
2022/07/07 05:55:16;;;;;;;7.82;4.45;;;;;;;15.25;100.00;101282.19;6221945;28;20050;-75
2022/07/07 05:58:19;;;;;;;7.32;3.58;;;;;;;15.26;100.00;101278.59;6222799;28;20497;-76
2022/07/07 06:01:20;;;;;;;7.25;4.00;;;;;;;15.22;100.00;101276.16;6223171;28;20054;-75
2022/07/07 06:04:21;;;;;;;4.47;2.90;;;;;;;15.19;100.00;101284.28;6223667;28;20053;-76
2022/07/07 06:07:23;;;;;;;8.55;3.67;;;;;;;15.19;100.00;101279.00;6224073;28;20057;-75
2022/07/07 06:10:24;;;;;;;5.25;3.55;;;;;;;15.23;100.00;101275.22;6223606;28;20061;-75
2022/07/07 06:13:27;;;;;;;6.30;3.75;;;;;;;15.30;100.00;101288.03;6222999;28;20049;-75
2022/07/07 06:16:41;;;;;;;5.03;3.67;;;;;;;15.33;100.00;101279.91;6222881;28;20057;-75
2022/07/07 06:19:43;;;;;;;6.50;3.60;;;;;;;15.31;100.00;101276.53;6233521;28;20045;-75
2022/07/07 06:22:44;;;;;;;5.82;2.90;;;;;;;15.31;100.00;101295.91;6227923;28;20048;-75
2022/07/07 06:25:46;;;;;;;4.80;3.05;;;;;;;15.31;100.00;101287.97;6223757;28;20049;-75
2022/07/07 06:28:49;;;;;;;5.93;3.53;;;;;;;15.31;100.00;101287.13;6222813;28;20513;-75
2022/07/07 06:31:50;;;;;;;7.95;2.70;;;;;;;15.34;100.00;101284.25;6222804;28;20057;-76
2022/07/07 06:34:52;;;;;;;4.35;2.90;;;;;;;15.32;100.00;101284.34;6222406;28;20054;-75
2022/07/07 06:37:53;;;;;;;6.35;2.60;;;;;;;15.32;100.00;101291.47;6222903;28;20053;-75
2022/07/07 06:40:57;;;;;;;4.75;2.65;;;;;;;15.31;100.00;101279.16;6223512;28;20131;-75
2022/07/07 06:44:00;;;;;;;4.60;2.42;;;;;;;15.30;100.00;101293.34;6224251;28;20046;-75
2022/07/07 06:47:02;;;;;;;3.47;2.42;;;;;;;15.35;100.00;101291.25;6225363;28;20053;-76
2022/07/07 06:50:04;;;;;;;2.72;1.98;;;;;;;15.34;100.00;101284.25;6228083;28;20045;-76
2022/07/07 06:53:05;;;;;;;2.60;1.98;;;;;;;15.38;100.00;101288.41;6208226;28;20053;-75
2022/07/07 06:56:07;;;;;;;2.75;2.00;;;;;;;15.47;100.00;101293.09;6203620;28;20050;-76
2022/07/07 06:59:10;;;;;;;2.63;1.77;;;;;;;15.55;100.00;101293.47;6203518;28;20054;-75
2022/07/07 07:02:11;;;;;;;3.00;1.50;;;;;;;15.59;100.00;101287.00;6203331;28;20054;-75
2022/07/07 07:05:13;;;;;;;1.90;1.50;;;;;;;15.56;100.00;101289.84;6202920;28;20540;-76
2022/07/07 07:08:14;;;;;;;2.05;1.35;;;;;;;15.62;100.00;101293.88;6203199;28;20422;-76
2022/07/07 07:11:15;;;;;;;1.30;1.20;;;;;;;15.64;100.00;101298.19;6203043;28;20061;-75
2022/07/07 07:14:18;;;;;;;1.27;1.10;;;;;;;15.70;100.00;101296.91;6203051;28;20046;-75
2022/07/07 07:17:19;;;;;;;1.10;0.98;;;;;;;15.70;100.00;101295.13;6202785;28;20054;-75
2022/07/07 07:20:21;;;;;;;1.85;1.20;;;;;;;15.71;100.00;101288.91;6203095;28;20054;-75
2022/07/07 07:23:23;;;;;;;1.13;0.85;;;;;;;15.73;100.00;101283.47;6204003;28;20051;-75
2022/07/07 07:26:25;;;;;;;1.75;0.90;;;;;;;15.72;100.00;101298.53;6202815;28;20070;-76
2022/07/07 07:29:28;;;;;;;2.17;1.00;;;;;;;15.70;100.00;101302.22;6202681;28;20145;-76
2022/07/07 07:32:29;;;;;;;1.17;1.08;;;;;;;15.64;100.00;101306.13;6202651;28;20054;-76
2022/07/07 07:35:31;;;;;;;2.05;1.10;;;;;;;15.65;100.00;101314.94;6202508;28;20057;-75
2022/07/07 07:38:32;;;;;;;1.50;0.98;;;;;;;15.71;100.00;101314.50;6202573;28;20069;-76
2022/07/07 07:41:33;;;;;;;2.22;1.00;;;;;;;15.72;100.00;101314.44;6202365;28;20061;-76
2022/07/07 07:47:56;;;;;;;0.88;0.88;;;;;;;15.85;100.00;101317.13;6202388;28;20054;-76
2022/07/07 07:50:58;;;;;;;4.03;0.90;;;;;;;15.83;100.00;101321.66;6201742;28;20050;-76
2022/07/07 07:53:59;;;;;;;1.65;0.80;;;;;;;15.81;100.00;101328.88;6203069;28;20046;-76
2022/07/07 07:57:01;;;;;;;0.73;0.73;;;;;;;15.81;100.00;101330.69;6203026;28;20422;-75
2022/07/07 08:00:05;;;;;;;1.50;0.95;;;;;;;15.71;100.00;101319.81;6201048;28;20132;-75
2022/07/07 08:03:07;;;;;;;0.80;0.80;;;;;;;15.80;100.00;101342.22;6202168;28;20069;-76
2022/07/07 08:06:08;;;;;;;0.82;0.82;;;;;;;15.83;100.00;101336.72;6214553;28;20079;-75
2022/07/07 08:09:10;;;;;;;1.05;0.82;;;;;;;15.81;100.00;101336.84;6224096;28;20068;-75
2022/07/07 08:12:11;;;;;;;1.73;0.90;;;;;;;15.83;100.00;101334.91;6223704;28;20448;-76
2022/07/07 08:15:14;;;;;;;0.88;0.82;;;;;;;15.88;100.00;101343.41;6223823;28;20050;-76
2022/07/07 08:18:16;;;;;;;1.10;1.00;;;;;;;16.01;100.00;101351.41;6223829;28;20054;-76
2022/07/07 08:21:18;;;;;;;1.98;1.15;;;;;;;16.16;100.00;101341.56;6223078;28;20050;-78
2022/07/07 08:24:20;;;;;;;2.45;0.95;;;;;;;16.22;100.00;101347.34;6222714;28;20050;-77
2022/07/07 08:27:22;;;;;;;1.35;0.90;;;;;;;16.29;100.00;101350.41;6223748;28;20049;-76
2022/07/07 08:30:25;;;;;;;1.08;0.93;;;;;;;16.33;100.00;101353.72;6223261;28;20835;-76
2022/07/07 08:33:26;;;;;;;0.93;0.70;;;;;;;16.32;100.00;101370.59;6223779;28;20045;-77
2022/07/07 08:36:27;;;;;;;1.13;0.60;;;;;;;16.32;100.00;101370.59;6223960;28;20490;-76
2022/07/07 08:39:29;;;;;;;0.98;0.88;;;;;;;16.22;100.00;101371.19;6223624;28;20053;-77
2022/07/07 08:42:30;;;;;;;1.88;0.88;;;;;;;16.17;100.00;101375.97;6223519;28;20060;-76
2022/07/07 08:45:33;;;;;;;0.80;0.80;;;;;;;16.15;100.00;101382.31;6223242;28;20049;-71
2022/07/07 08:48:35;;;;;;;1.15;0.93;;;;;;;16.16;100.00;101387.50;6223636;28;20394;-78
2022/07/07 08:51:40;;;;;;;1.65;1.20;;;;;;;16.22;100.00;101387.13;6220880;28;20050;-77
2022/07/07 08:54:43;;;;;;;1.40;1.23;;;;;;;16.31;100.00;101385.66;6198969;28;20050;-77
2022/07/07 08:57:45;;;;;;;1.88;1.30;;;;;;;16.23;100.00;101402.06;6199126;28;20050;-75
2022/07/07 09:00:47;;;;;;;1.42;1.17;;;;;;;16.14;100.00;101407.97;6194399;28;20520;-76
2022/07/07 09:03:49;;;;;;;1.10;1.00;;;;;;;15.88;100.00;101406.19;6221913;28;20046;-77
2022/07/07 09:06:54;;;;;;;0.70;0.70;;;;;;;15.88;100.00;101414.97;6222415;28;20076;-80
2022/07/07 09:09:55;;;;;;;0.80;0.70;;;;;;;15.89;100.00;101431.72;6221884;28;20058;-80
2022/07/07 09:12:57;;;;;;;1.02;0.93;;;;;;;15.94;100.00;101421.69;6222732;28;20513;-80
2022/07/07 09:16:01;;;;;;;0.75;0.63;;;;;;;15.97;100.00;101430.28;6222288;28;20413;-78
2022/07/07 09:19:06;;;;;;;0.50;0.47;;;;;;;15.97;100.00;101443.53;6223807;28;20050;-77
2022/07/07 09:22:07;;;;;;;0.50;0.50;;;;;;;15.95;100.00;101437.50;6223360;28;20050;-77
2022/07/07 09:25:09;;;;;;;1.00;0.75;;;;;;;15.90;100.00;101431.66;6224218;28;20407;-79
2022/07/07 09:28:11;;;;;;;2.17;0.70;;;;;;;15.94;100.00;101440.22;6223613;28;20465;-77
2022/07/07 09:31:17;;;;;;;0.82;0.82;;;;;;;15.89;100.00;101445.00;6223554;28;20054;-79
2022/07/07 09:34:19;;;;;;;1.00;0.70;;;;;;;16.00;100.00;101450.47;6223934;28;20057;-79
2022/07/07 09:40:54;;;;;;;2.90;1.10;;;;;;;16.02;100.00;101468.91;6224909;28;20514;-79
2022/07/07 09:43:56;;;;;;;1.63;1.25;;;;;;;16.19;100.00;101466.88;6224760;28;20057;-78
2022/07/07 09:47:10;;;;;;;3.00;1.70;;;;;;;16.30;100.00;101468.81;6224705;28;20050;-78
2022/07/07 09:50:13;;;;;;;4.32;1.70;;;;;;;16.28;100.00;101483.13;6223960;28;20464;-80
2022/07/07 09:53:14;;;;;;;2.10;1.48;;;;;;;16.16;100.00;101484.78;6222896;28;20056;-79
2022/07/07 09:56:15;;;;;;;1.58;1.00;;;;;;;15.94;100.00;101491.47;6223823;28;20054;-79
2022/07/07 09:59:19;;;;;;;4.97;0.85;;;;;;;15.86;100.00;101498.22;6224560;28;20054;-79
2022/07/07 10:02:24;;;;;;;2.10;0.80;;;;;;;15.78;100.00;101506.66;6223868;28;20418;-81
2022/07/07 10:05:27;;;;;;;2.78;0.90;;;;;;;15.79;100.00;101512.78;6224243;28;20058;-81
2022/07/07 10:08:31;;;;;;;4.68;2.03;;;;;;;15.84;100.00;101516.84;6223650;28;20049;-81
2022/07/07 10:11:36;;;;;;;7.05;1.08;;;;;;;15.94;100.00;101511.81;6224767;28;20056;-82
2022/07/07 10:14:43;;;;;;;3.10;1.08;;;;;;;16.24;100.00;101509.00;6223251;28;20487;-81
2022/07/07 10:17:46;;;;;;;1.95;1.10;;;;;;;16.42;100.00;101521.06;6223402;28;20042;-81
2022/07/07 10:20:47;;;;;;;2.92;1.50;;;;;;;16.53;100.00;101522.16;6223830;28;20134;-79
2022/07/07 10:23:49;;;;;;;2.60;0.88;;;;;;;16.58;100.00;101536.84;6227962;28;20413;-78
2022/07/07 10:26:53;;;;;;;1.67;1.20;;;;;;;16.66;100.00;101539.81;6229408;28;20054;-80
2022/07/07 10:29:55;;;;;;;2.03;1.25;;;;;;;16.78;100.00;101545.31;6228920;28;20141;-79
2022/07/07 10:32:58;;;;;;;1.33;0.98;;;;;;;16.85;100.00;101549.25;6230099;28;20401;-79
2022/07/07 10:36:00;;;;;;;4.47;0.90;;;;;;;16.83;100.00;101548.50;6230219;28;20081;-79
2022/07/07 10:39:02;;;;;;;0.82;0.77;;;;;;;16.80;100.00;101551.34;6229676;28;20096;-78
2022/07/07 10:42:07;;;;;;;1.98;1.00;;;;;;;16.84;100.00;101551.06;6227986;28;20486;-78
2022/07/07 10:45:10;;;;;;;2.50;0.95;;;;;;;16.95;100.00;101564.47;6228603;28;20050;-76
2022/07/07 10:48:43;;;;;;;2.78;1.10;;;;;;;17.09;100.00;101560.88;6225176;28;20053;-77
2022/07/07 10:51:54;;;;;;;2.40;0.98;;;;;;;17.28;100.00;101565.78;6220899;28;20528;-77
2022/07/07 10:54:59;;;;;;;2.00;0.98;;;;;;;17.31;100.00;101565.59;6226778;28;20056;-78
2022/07/07 10:58:00;;;;;;;4.18;0.80;;;;;;;17.31;100.00;101573.56;6227101;28;20046;-77
2022/07/07 11:01:08;;;;;;;4.28;1.48;;;;;;;17.21;100.00;101569.81;6226585;28;20053;-76
2022/07/07 11:04:11;;;;;;;1.05;0.68;;;;;;;17.07;100.00;101583.19;6226050;28;20048;-77
2022/07/07 11:07:14;;;;;;;1.52;0.95;;;;;;;16.92;100.00;101588.56;6225763;28;20057;-77
2022/07/07 11:10:16;;;;;;;3.45;0.80;;;;;;;16.80;100.00;101600.00;6226611;28;20053;-78
2022/07/07 11:13:21;;;;;;;2.40;1.15;;;;;;;16.68;100.00;101595.47;6226865;28;20077;-78
2022/07/07 11:16:23;;;;;;;1.65;1.10;;;;;;;16.71;100.00;101606.75;6226780;28;20045;-77
2022/07/07 11:19:33;;;;;;;2.15;0.70;;;;;;;16.87;100.00;101606.63;6225880;28;20054;-77
2022/07/07 11:22:43;;;;;;;1.48;0.70;;;;;;;17.32;100.00;101595.66;6225864;28;20062;-77
2022/07/07 11:25:47;;;;;;;5.22;1.10;;;;;;;17.68;100.00;101590.47;6224984;28;20050;-76
2022/07/07 11:28:48;;;;;;;3.85;0.90;;;;;;;17.58;100.00;101600.06;6225077;28;20081;-76
2022/07/07 11:32:00;;;;;;;0.77;0.52;;;;;;;17.52;100.00;101607.56;6225715;28;20045;-77
2022/07/07 11:35:05;;;;;;;3.60;0.77;;;;;;;17.67;100.00;101599.41;6224443;28;20041;-76
2022/07/07 11:38:09;;;;;;;1.17;0.60;;;;;;;18.17;100.00;101600.34;6225179;28;20057;-76
2022/07/07 11:41:10;;;;;;;1.92;0.80;;;;;;;18.19;100.00;101594.91;6225289;28;20425;-76
2022/07/07 11:44:19;;;;;;;0.70;0.65;;;;;;;18.08;100.00;101616.13;6224588;28;20046;-77
2022/07/07 11:47:20;;;;;;;1.55;0.70;;;;;;;17.96;100.00;101612.50;6225751;28;20046;-77
2022/07/07 11:50:24;;;;;;;0.55;0.50;;;;;;;17.94;100.00;101609.97;6224872;28;20064;-77
2022/07/07 11:53:25;;;;;;;1.08;0.40;;;;;;;18.34;100.00;101612.41;6225297;28;20050;-77
2022/07/07 11:56:34;;;;;;;0.65;0.50;;;;;;;18.34;100.00;101601.75;6224664;28;20058;-77
2022/07/07 11:59:36;;;;;;;1.30;0.60;;;;;;;18.22;100.00;101611.50;6225267;28;20049;-78
2022/07/07 12:02:37;;;;;;;1.05;0.55;;;;;;;18.02;100.00;101608.53;6226539;28;20054;-76
2022/07/07 12:05:43;;;;;;;2.90;0.50;;;;;;;17.94;100.00;101617.06;6224655;28;20053;-76
2022/07/07 12:08:45;;;;;;;3.42;0.65;;;;;;;18.01;100.00;101623.66;6224680;28;20513;-77
2022/07/07 12:11:47;;;;;;;3.10;0.57;;;;;;;18.17;100.00;101628.75;6225492;28;20050;-76
2022/07/07 12:14:48;;;;;;;1.52;0.50;;;;;;;18.32;100.00;101621.47;6224540;28;20050;-76
2022/07/07 12:17:49;;;;;;;1.55;0.40;;;;;;;18.44;100.00;101629.44;6224985;28;20457;-79
2022/07/07 12:21:00;;;;;;;1.38;0.30;;;;;;;18.34;100.00;101643.50;6228112;28;20413;-79
2022/07/07 12:24:03;;;;;;;4.78;0.50;;;;;;;18.29;100.00;101632.34;6225083;28;20050;-77
2022/07/07 12:27:15;;;;;;;0.45;0.40;;;;;;;18.21;100.00;101641.75;6224543;28;20053;-77
2022/07/07 12:30:17;;;;;;;1.35;0.40;;;;;;;18.54;100.00;101650.06;6224308;28;20461;-77
2022/07/07 12:33:25;;;;;;;1.60;0.60;;;;;;;18.75;100.00;101646.69;6225937;28;20060;-78
2022/07/07 12:36:28;;;;;;;3.67;0.20;;;;;;;18.82;99.49;101660.44;6224900;28;20046;-78
2022/07/07 12:39:34;;;;;;;0.35;0.30;;;;;;;18.71;98.89;101655.03;6225504;28;20076;-80
2022/07/07 12:42:35;;;;;;;1.02;0.70;;;;;;;18.48;100.00;101668.16;6228179;28;20076;-78
2022/07/07 12:45:38;;;;;;;1.17;0.43;;;;;;;18.34;100.00;101670.97;6225521;28;20493;-77
2022/07/07 12:48:45;;;;;;;0.63;0.45;;;;;;;18.25;100.00;101669.78;6224816;28;20054;-77
2022/07/07 12:51:49;;;;;;;1.38;0.40;;;;;;;18.16;100.00;101677.59;6227684;28;20049;-79
2022/07/07 12:54:55;;;;;;;1.52;0.30;;;;;;;17.81;100.00;101710.16;6225490;28;20050;-77
2022/07/07 12:57:56;;;;;;;0.60;0.32;;;;;;;17.41;100.00;101702.19;6225632;28;20081;-78
2022/07/07 13:01:00;;;;;;;0.40;0.40;;;;;;;17.13;100.00;101710.28;6224674;28;20065;-77
2022/07/07 13:04:01;;;;;;;0.52;0.40;;;;;;;17.06;100.00;101706.31;6225490;28;20057;-77
2022/07/07 13:07:04;;;;;;;0.70;0.45;;;;;;;17.18;100.00;101724.13;6224414;28;20060;-77
2022/07/07 13:10:06;;;;;;;0.50;0.28;;;;;;;17.24;100.00;101708.59;6223514;28;20501;-71
2022/07/07 13:13:08;;;;;;;2.45;0.60;;;;;;;17.30;100.00;101723.28;6224066;28;20060;-79
2022/07/07 13:16:10;;;;;;;0.95;0.60;;;;;;;17.49;100.00;101710.50;6224053;28;20049;-76
2022/07/07 13:19:11;;;;;;;0.52;0.45;;;;;;;17.52;100.00;101714.75;6223859;28;20486;-78
2022/07/07 13:22:14;;;;;;;1.52;0.80;;;;;;;17.56;100.00;101726.88;6225588;28;20038;-78
2022/07/07 13:25:15;;;;;;;1.65;1.00;;;;;;;17.38;100.00;101733.41;6226924;28;20046;-78
2022/07/07 13:28:17;;;;;;;4.82;0.82;;;;;;;17.09;100.00;101752.13;6225662;28;20402;-78
2022/07/07 13:31:19;;;;;;;6.53;0.90;;;;;;;16.81;100.00;101760.16;6226200;28;20046;-79
2022/07/07 13:34:20;;;;;;;5.15;1.02;;;;;;;16.57;100.00;101770.47;6223601;28;20046;-79
2022/07/07 13:37:23;;;;;;;6.10;1.65;;;;;;;16.54;100.00;101770.66;6226458;28;20053;-78
2022/07/07 13:40:24;;;;;;;5.28;1.10;;;;;;;16.49;100.00;101766.50;6224915;28;20486;-79
2022/07/07 13:43:25;;;;;;;4.63;0.80;;;;;;;16.55;100.00;101781.19;6225246;28;20502;-79
2022/07/07 13:46:27;;;;;;;2.05;0.82;;;;;;;16.62;100.00;101782.53;6226445;28;20053;-80
2022/07/07 13:49:28;;;;;;;1.58;0.75;;;;;;;16.79;100.00;101794.75;6225895;28;20058;-82
2022/07/07 13:52:31;;;;;;;5.38;1.17;;;;;;;16.88;100.00;101786.19;6222861;28;20046;-81
2022/07/07 13:55:32;;;;;;;3.28;0.70;;;;;;;16.95;100.00;101784.88;6237751;28;20520;-80
2022/07/07 13:58:34;;;;;;;7.25;1.40;;;;;;;17.17;100.00;101794.13;6252298;28;20420;-75
2022/07/07 14:01:35;;;;;;;1.55;1.08;;;;;;;17.38;100.00;101781.25;6252374;28;20081;-82
2022/07/07 14:04:37;;;;;;;2.15;0.85;;;;;;;17.49;100.00;101784.91;6252572;28;20128;-77
2022/07/07 14:07:40;;;;;;;3.58;1.02;;;;;;;17.49;100.00;101794.69;6254656;28;20082;-78